Time;durP1;ratioP1;P1;durP2;ratioP2;P2;SDS_P1;SDS_P2;PMS_P1;PMS_P2;Temp;Humidity;BMP_temperature;BMP_pressure;BME280_temperature;BME280_humidity;BME280_pressure;Samples;Min_cycle;Max_cycle;Signal;HPM_P1;HPM_P2
2021/12/04 00:01:48;;;;;;;2.87;2.03;;;-0.90;99.90;;;;;;5025966;28;20199;-71
2021/12/04 00:04:39;;;;;;;4.40;2.27;;;-0.80;99.90;;;;;;5027897;28;20194;-69
2021/12/04 00:07:24;;;;;;;7.33;2.00;;;-0.80;99.90;;;;;;5030323;28;20258;-71
2021/12/04 00:10:09;;;;;;;3.77;2.80;;;-0.80;99.90;;;;;;5029601;28;20197;-72
2021/12/04 00:12:54;;;;;;;2.80;2.60;;;-0.80;99.90;;;;;;5029427;28;20276;-69
2021/12/04 00:15:38;;;;;;;2.83;2.63;;;-0.70;99.90;;;;;;5029248;28;20206;-68
2021/12/04 00:18:23;;;;;;;3.00;2.50;;;-0.70;99.90;;;;;;5029566;28;20230;-69
2021/12/04 00:21:07;;;;;;;2.80;2.60;;;-0.70;99.90;;;;;;5029880;28;20250;-67
2021/12/04 00:23:52;;;;;;;4.37;2.10;;;-0.60;99.90;;;;;;5029700;28;20210;-69
2021/12/04 00:26:37;;;;;;;1.80;1.70;;;-0.70;99.90;;;;;;5028895;28;20265;-70
2021/12/04 00:29:22;;;;;;;1.93;1.73;;;-0.60;99.90;;;;;;5030140;28;20230;-70
2021/12/04 00:32:54;;;;;;;2.27;1.70;;;-0.60;99.90;;;;;;5029633;28;20297;-71
2021/12/04 00:35:20;;;;;;;3.97;3.23;;;-0.60;99.90;;;;;;5029748;28;20194;-68
2021/12/04 00:49:54;;;;;;;2.47;1.87;;;-0.60;99.90;;;;;;5029747;28;20250;-72
2021/12/04 00:52:39;;;;;;;3.47;2.63;;;-0.60;99.90;;;;;;5027619;28;20194;-69
2021/12/04 00:55:23;;;;;;;6.67;2.60;;;-0.60;99.90;;;;;;5028549;28;20207;-68
2021/12/04 00:58:07;;;;;;;1.93;1.83;;;-0.70;99.90;;;;;;5027258;28;20203;-68
2021/12/04 01:00:51;;;;;;;1.57;1.43;;;-0.70;99.90;;;;;;5027035;28;20195;-69
2021/12/04 01:03:36;;;;;;;5.07;1.53;;;-0.60;99.90;;;;;;5026301;28;20230;-69
2021/12/04 01:06:20;;;;;;;1.80;1.80;;;-0.60;99.90;;;;;;5026488;28;20233;-69
2021/12/04 01:09:08;;;;;;;2.90;2.30;;;-0.60;99.90;;;;;;5027246;28;20214;-69
2021/12/04 01:11:54;;;;;;;2.20;1.70;;;-0.50;99.90;;;;;;5026391;28;20245;-69
2021/12/04 01:14:39;;;;;;;3.23;1.77;;;-0.50;99.90;;;;;;5026790;28;20198;-69
2021/12/04 01:17:24;;;;;;;3.13;1.47;;;-0.50;99.90;;;;;;5027060;28;20238;-68
2021/12/04 01:20:08;;;;;;;2.73;2.47;;;-0.40;99.90;;;;;;5028540;28;20222;-69
2021/12/04 01:22:53;;;;;;;3.33;2.70;;;-0.30;99.90;;;;;;5028253;28;20197;-68
2021/12/04 01:25:39;;;;;;;3.07;2.03;;;-0.30;99.90;;;;;;5028577;28;20199;-68
2021/12/04 01:28:23;;;;;;;1.60;1.27;;;-0.30;99.90;;;;;;5028041;28;20203;-67
2021/12/04 01:31:08;;;;;;;5.93;2.27;;;-0.30;99.90;;;;;;5028083;28;20249;-67
2021/12/04 01:33:53;;;;;;;4.30;2.03;;;-0.30;99.90;;;;;;5028400;28;20195;-67
2021/12/04 01:36:37;;;;;;;3.10;2.30;;;-0.40;99.90;;;;;;5028135;28;20222;-68
2021/12/04 01:39:23;;;;;;;2.30;2.20;;;-0.40;99.90;;;;;;5029200;28;20239;-67
2021/12/04 01:42:07;;;;;;;4.33;2.30;;;-0.40;99.90;;;;;;5027225;28;20230;-67
2021/12/04 01:44:51;;;;;;;1.73;1.57;;;-0.40;99.90;;;;;;5026580;28;20214;-66
2021/12/04 01:47:36;;;;;;;1.77;1.63;;;-0.40;99.90;;;;;;5027813;28;20269;-66
2021/12/04 01:50:22;;;;;;;3.07;2.57;;;-0.40;99.90;;;;;;5027084;28;20277;-66
2021/12/04 01:53:06;;;;;;;2.03;1.83;;;-0.30;99.90;;;;;;5026934;28;20226;-66
2021/12/04 01:55:53;;;;;;;3.63;1.67;;;-0.30;99.90;;;;;;5028130;28;20219;-67
2021/12/04 01:58:41;;;;;;;3.10;1.77;;;-0.30;99.90;;;;;;5042158;28;20199;-67
2021/12/04 02:01:25;;;;;;;8.07;1.83;;;-0.30;99.90;;;;;;5027542;28;20280;-67
2021/12/04 02:04:09;;;;;;;2.23;1.70;;;-0.20;99.90;;;;;;5027661;28;20191;-66
2021/12/04 02:06:54;;;;;;;4.33;1.60;;;-0.20;99.90;;;;;;5027904;28;20230;-67
2021/12/04 02:09:39;;;;;;;2.43;2.33;;;-0.20;99.90;;;;;;5028482;28;20218;-67
2021/12/04 02:12:23;;;;;;;1.60;1.33;;;-0.20;99.90;;;;;;5027444;28;20203;-66
2021/12/04 02:15:11;;;;;;;3.23;2.13;;;-0.20;99.90;;;;;;5027401;28;20202;-66
2021/12/04 02:17:56;;;;;;;3.13;2.00;;;-0.20;99.90;;;;;;5027529;28;20206;-67
2021/12/04 02:20:41;;;;;;;2.57;2.37;;;-0.20;99.90;;;;;;5027801;28;20191;-67
2021/12/04 02:23:26;;;;;;;1.93;1.87;;;-0.10;99.90;;;;;;5026985;28;20191;-66
2021/12/04 02:26:11;;;;;;;1.77;1.67;;;-0.10;99.90;;;;;;5027593;28;20320;-67
2021/12/04 02:28:57;;;;;;;1.43;1.27;;;-0.20;99.90;;;;;;5027009;28;20238;-67
2021/12/04 02:31:55;;;;;;;2.47;2.27;;;-0.20;99.90;;;;;;5026944;28;20293;-66
2021/12/04 02:34:40;;;;;;;2.77;2.23;;;-0.20;99.90;;;;;;5026783;28;20230;-67
2021/12/04 02:37:24;;;;;;;1.93;1.83;;;-0.10;99.90;;;;;;5027086;28;20242;-67
2021/12/04 02:40:12;;;;;;;3.87;2.13;;;-0.10;99.90;;;;;;5026875;28;20249;-67
2021/12/04 02:42:57;;;;;;;2.53;2.40;;;-0.20;99.90;;;;;;5026529;28;20273;-66
2021/12/04 02:45:43;;;;;;;2.23;2.07;;;-0.10;99.90;;;;;;5027076;28;20198;-66
2021/12/04 02:48:29;;;;;;;2.80;1.93;;;-0.20;99.90;;;;;;5026941;28;20230;-67
2021/12/04 02:51:15;;;;;;;1.33;1.33;;;-0.20;99.90;;;;;;5026470;28;20299;-66
2021/12/04 02:53:59;;;;;;;3.27;1.73;;;-0.10;99.90;;;;;;5026200;28;20194;-67
2021/12/04 02:56:45;;;;;;;2.40;2.03;;;0.00;99.90;;;;;;5026809;28;20218;-66
2021/12/04 02:59:29;;;;;;;3.17;1.83;;;-0.10;99.90;;;;;;5026321;28;20221;-67
2021/12/04 03:02:21;;;;;;;2.27;2.07;;;-0.20;99.90;;;;;;5026193;28;20254;-66
2021/12/04 03:05:08;;;;;;;4.03;1.87;;;-0.20;99.90;;;;;;5027177;28;20301;-67
2021/12/04 03:07:55;;;;;;;1.23;1.23;;;-0.10;99.90;;;;;;5026321;28;20222;-67
2021/12/04 03:10:40;;;;;;;3.23;1.90;;;0.00;99.90;;;;;;5026347;28;20199;-66
2021/12/04 03:13:25;;;;;;;3.00;2.43;;;-0.10;99.90;;;;;;5026185;28;20206;-66
2021/12/04 03:16:09;;;;;;;3.70;2.40;;;-0.10;99.90;;;;;;5026067;28;20226;-67
2021/12/04 03:18:53;;;;;;;2.23;2.03;;;-0.20;99.90;;;;;;5025421;28;20194;-66
2021/12/04 03:21:39;;;;;;;3.33;3.03;;;-0.10;99.90;;;;;;5025110;28;20191;-66
2021/12/04 03:24:24;;;;;;;2.87;1.70;;;-0.10;99.90;;;;;;5025588;28;20197;-66
2021/12/04 03:27:10;;;;;;;2.17;1.73;;;-0.20;99.90;;;;;;5025657;28;20230;-67
2021/12/04 03:29:57;;;;;;;2.37;2.17;;;-0.20;99.90;;;;;;5024551;28;20199;-67
2021/12/04 03:41:35;;;;;;;1.50;1.43;;;-0.20;99.90;;;;;;5025523;28;20246;-67
2021/12/04 03:44:20;;;;;;;3.07;2.13;;;-0.20;99.90;;;;;;5025663;28;20291;-67
2021/12/04 03:47:04;;;;;;;2.67;2.43;;;-0.20;99.90;;;;;;5025639;28;20234;-66
2021/12/04 03:49:50;;;;;;;2.23;2.03;;;-0.20;99.90;;;;;;5025506;28;20231;-67
2021/12/04 03:52:36;;;;;;;2.33;1.50;;;-0.30;99.90;;;;;;5025851;28;20289;-67
2021/12/04 03:55:20;;;;;;;1.70;1.63;;;-0.30;99.90;;;;;;5039819;28;20248;-67
2021/12/04 03:58:04;;;;;;;4.53;3.50;;;-0.20;99.90;;;;;;5025537;28;20287;-67
2021/12/04 04:00:50;;;;;;;1.20;1.10;;;-0.20;99.90;;;;;;5025794;28;20249;-67
2021/12/04 04:03:35;;;;;;;1.50;1.40;;;-0.20;99.90;;;;;;5025737;28;20187;-67
2021/12/04 04:06:19;;;;;;;2.00;1.83;;;-0.30;99.90;;;;;;5026712;28;20305;-67
2021/12/04 04:09:04;;;;;;;2.00;1.90;;;-0.30;99.90;;;;;;5026291;28;20195;-66
2021/12/04 04:11:48;;;;;;;1.80;1.60;;;-0.30;99.90;;;;;;5025631;28;20253;-67
2021/12/04 04:14:32;;;;;;;1.63;1.53;;;-0.20;99.90;;;;;;5025986;28;20202;-67
2021/12/04 04:17:17;;;;;;;2.33;2.03;;;-0.30;99.90;;;;;;5025293;28;20254;-67
2021/12/04 04:20:03;;;;;;;10.50;1.07;;;-0.30;99.90;;;;;;5025191;28;20202;-67
2021/12/04 04:22:49;;;;;;;1.43;1.43;;;-0.40;99.90;;;;;;5025866;28;20203;-67
2021/12/04 04:25:34;;;;;;;1.53;1.53;;;-0.30;99.90;;;;;;5024690;28;20198;-67
2021/12/04 04:28:19;;;;;;;1.70;1.70;;;-0.40;99.90;;;;;;5025037;28;20289;-67
2021/12/04 04:31:04;;;;;;;1.87;1.77;;;-0.30;99.90;;;;;;5025507;28;20226;-67
2021/12/04 04:33:48;;;;;;;1.33;1.33;;;-0.40;99.90;;;;;;5025781;28;20255;-67
2021/12/04 04:58:10;;;;;;;2.07;1.77;;;-0.40;99.90;;;;;;5015205;28;20250;-67
2021/12/04 05:21:12;;;;;;;1.60;1.50;;;-0.40;99.90;;;;;;5029848;28;20215;-69
2021/12/04 05:23:57;;;;;;;1.90;1.50;;;-0.40;99.90;;;;;;5029112;28;20367;-68
2021/12/04 05:26:41;;;;;;;2.17;1.43;;;-0.40;99.90;;;;;;5028239;28;20239;-69
2021/12/04 05:29:26;;;;;;;2.60;1.83;;;-0.50;99.90;;;;;;5020992;28;20311;-68
2021/12/04 05:32:11;;;;;;;1.80;1.53;;;-0.50;99.90;;;;;;5028865;28;20203;-69
2021/12/04 05:34:55;;;;;;;2.63;1.27;;;-0.60;99.90;;;;;;5029481;28;20195;-70
2021/12/04 05:37:39;;;;;;;2.87;1.20;;;-0.60;99.90;;;;;;5027806;28;20199;-69
2021/12/04 05:40:24;;;;;;;1.20;1.20;;;-0.50;99.90;;;;;;5028702;28;20218;-68
2021/12/04 05:43:09;;;;;;;0.93;0.90;;;-0.50;99.90;;;;;;5028549;28;20198;-68
2021/12/04 05:46:09;;;;;;;2.57;1.87;;;-0.50;99.90;;;;;;5028777;28;20191;-71
2021/12/04 05:49:08;;;;;;;2.83;1.37;;;-0.50;99.90;;;;;;5028342;28;20202;-70
2021/12/04 05:57:24;;;;;;;2.00;1.90;;;-0.60;99.90;;;;;;5029737;28;20191;-68
2021/12/04 06:00:14;;;;;;;1.40;1.30;;;-0.50;99.90;;;;;;5027867;28;20195;-69
2021/12/04 06:02:59;;;;;;;2.03;1.73;;;-0.50;99.90;;;;;;5028572;28;20207;-70
2021/12/04 06:05:43;;;;;;;4.00;1.33;;;-0.50;99.90;;;;;;5028511;28;20234;-70
2021/12/04 06:08:27;;;;;;;1.20;1.17;;;-0.50;99.90;;;;;;5007794;28;20255;-68
2021/12/04 06:11:12;;;;;;;3.17;1.77;;;-0.50;99.90;;;;;;5007986;28;20238;-70
2021/12/04 06:13:56;;;;;;;2.77;1.20;;;-0.50;99.90;;;;;;5008144;28;20219;-70
2021/12/04 06:16:40;;;;;;;1.70;1.60;;;-0.50;99.90;;;;;;5007916;28;20192;-69
2021/12/04 06:22:37;;;;;;;1.70;1.60;;;-0.40;99.90;;;;;;5007408;28;20278;-68
2021/12/04 06:22:38;;;;;;;2.93;2.17;;;-0.40;99.90;;;;;;5009236;28;20257;-71
2021/12/04 06:25:27;;;;;;;1.80;1.70;;;-0.50;99.90;;;;;;5007819;28;20198;-69
2021/12/04 06:28:11;;;;;;;1.37;1.27;;;-0.40;99.90;;;;;;5008049;28;20199;-72
2021/12/04 06:30:58;;;;;;;1.47;1.40;;;-0.50;99.90;;;;;;5007507;28;20215;-72
2021/12/04 06:33:43;;;;;;;2.33;1.57;;;-0.50;99.90;;;;;;5009052;28;20254;-70
2021/12/04 06:36:27;;;;;;;2.17;1.97;;;-0.40;99.90;;;;;;5007517;28;20679;-73
2021/12/04 06:39:12;;;;;;;1.93;1.83;;;-0.50;99.90;;;;;;5007658;28;20219;-70
2021/12/04 06:41:56;;;;;;;2.30;1.77;;;-0.40;99.90;;;;;;5008052;28;20211;-69
2021/12/04 06:44:41;;;;;;;2.47;2.37;;;-0.40;99.90;;;;;;5007195;28;20196;-68
2021/12/04 06:47:25;;;;;;;4.47;2.13;;;-0.50;99.90;;;;;;5007536;28;20223;-69
2021/12/04 06:50:16;;;;;;;3.00;2.77;;;-0.50;99.90;;;;;;5007756;28;20298;-70
2021/12/04 06:53:08;;;;;;;1.37;1.10;;;-0.50;99.90;;;;;;5007642;28;20195;-69
2021/12/04 06:55:55;;;;;;;3.87;1.93;;;-0.50;99.90;;;;;;5006609;28;20253;-70
2021/12/04 06:58:40;;;;;;;2.27;1.60;;;-0.50;99.90;;;;;;5006309;28;20248;-70
2021/12/04 07:01:24;;;;;;;5.53;2.00;;;-0.50;99.90;;;;;;5007547;28;20199;-70
2021/12/04 07:04:09;;;;;;;1.77;1.57;;;-0.50;99.90;;;;;;5008025;28;20199;-69
2021/12/04 07:06:53;;;;;;;4.77;1.80;;;-0.50;99.90;;;;;;5006996;28;20250;-68
2021/12/04 07:09:38;;;;;;;2.43;2.13;;;-0.50;99.90;;;;;;5006945;28;20254;-68
2021/12/04 07:12:24;;;;;;;2.83;1.57;;;-0.40;99.90;;;;;;5007488;28;20195;-69
2021/12/04 07:15:11;;;;;;;1.40;1.30;;;-0.40;99.90;;;;;;5006355;28;20199;-69
2021/12/04 07:17:56;;;;;;;2.87;1.73;;;-0.40;99.90;;;;;;5006573;28;20204;-68
2021/12/04 07:20:40;;;;;;;2.10;1.87;;;-0.40;99.90;;;;;;5007183;28;20215;-70
2021/12/04 07:23:25;;;;;;;1.37;1.30;;;-0.40;99.90;;;;;;5006940;28;20299;-68
2021/12/04 07:26:09;;;;;;;2.20;2.07;;;-0.40;99.90;;;;;;5007053;28;20307;-68
2021/12/04 07:28:55;;;;;;;2.60;2.40;;;-0.40;99.90;;;;;;5006302;28;20196;-69
2021/12/04 07:31:39;;;;;;;4.23;1.73;;;-0.40;99.90;;;;;;5006923;28;20219;-69
2021/12/04 07:34:24;;;;;;;1.80;1.70;;;-0.40;99.90;;;;;;5007378;28;20223;-67
2021/12/04 07:37:08;;;;;;;4.20;1.80;;;-0.20;99.90;;;;;;5007007;28;20238;-68
2021/12/04 07:39:53;;;;;;;2.83;1.60;;;-0.40;99.90;;;;;;5016639;28;20195;-69
2021/12/04 07:42:37;;;;;;;3.80;1.67;;;-0.40;99.90;;;;;;5026494;28;20202;-69
2021/12/04 07:45:21;;;;;;;3.17;2.33;;;-0.30;99.90;;;;;;5019938;28;20210;-68
2021/12/04 07:48:06;;;;;;;1.57;1.47;;;-0.30;99.90;;;;;;5015468;28;20320;-67
2021/12/04 07:50:51;;;;;;;2.10;2.00;;;-0.20;99.90;;;;;;5025996;28;20221;-68
2021/12/04 07:53:35;;;;;;;3.50;2.90;;;-0.10;99.90;;;;;;5022166;28;20253;-68
2021/12/04 07:56:19;;;;;;;2.73;2.43;;;-0.10;99.90;;;;;;5025521;28;20240;-69
2021/12/04 07:59:04;;;;;;;2.77;1.53;;;0.00;99.90;;;;;;5012484;28;20190;-69
2021/12/04 08:01:48;;;;;;;4.43;2.53;;;-0.10;99.90;;;;;;5025833;28;20191;-68
2021/12/04 08:04:33;;;;;;;2.20;1.77;;;0.00;99.90;;;;;;5026622;28;20249;-68
2021/12/04 08:07:17;;;;;;;2.07;1.87;;;0.00;99.90;;;;;;5025163;28;20237;-67
2021/12/04 08:10:03;;;;;;;2.10;1.90;;;-0.20;99.90;;;;;;5022072;28;20191;-66
2021/12/04 08:12:48;;;;;;;1.63;1.53;;;-0.20;99.90;;;;;;5025699;28;20215;-67
2021/12/04 08:15:36;;;;;;;4.80;2.77;;;-0.20;99.90;;;;;;5024994;28;20241;-67
2021/12/04 08:18:21;;;;;;;1.73;1.63;;;-0.10;99.90;;;;;;5024323;28;20287;-66
2021/12/04 08:21:06;;;;;;;3.00;1.70;;;-0.10;99.90;;;;;;5020776;28;20238;-66
2021/12/04 08:23:51;;;;;;;2.60;2.17;;;0.00;99.90;;;;;;5021007;28;20202;-66
2021/12/04 08:26:38;;;;;;;2.00;1.87;;;0.00;99.90;;;;;;5028609;28;20261;-66
2021/12/04 08:29:22;;;;;;;3.40;2.60;;;-0.10;99.90;;;;;;5021345;28;20191;-66
2021/12/04 08:32:08;;;;;;;3.10;2.23;;;-0.10;99.90;;;;;;5024024;28;20195;-66
2021/12/04 08:38:35;;;;;;;4.87;2.80;;;-0.10;99.90;;;;;;5026820;28;20231;-66
2021/12/04 08:41:21;;;;;;;3.97;3.57;;;-0.10;99.90;;;;;;5024232;28;20196;-65
2021/12/04 08:44:05;;;;;;;5.17;3.27;;;-0.10;99.90;;;;;;5028826;28;20202;-67
2021/12/04 08:46:50;;;;;;;2.03;1.63;;;0.00;99.90;;;;;;5028442;28;20233;-66
2021/12/04 08:49:34;;;;;;;1.80;1.70;;;0.10;99.90;;;;;;5023317;28;20235;-67
2021/12/04 08:52:19;;;;;;;2.13;1.70;;;0.10;99.90;;;;;;5025047;28;20190;-68
2021/12/04 08:55:05;;;;;;;1.93;1.83;;;0.20;99.90;;;;;;5028771;28;20191;-67
2021/12/04 08:57:50;;;;;;;4.53;3.60;;;0.10;99.90;;;;;;5028223;28;20222;-68
2021/12/04 09:00:50;;;;;;;3.57;2.73;;;0.20;99.90;;;;;;5029201;28;20211;-67
2021/12/04 09:03:36;;;;;;;2.20;2.00;;;0.10;99.90;;;;;;5020421;28;20211;-67
2021/12/04 09:06:22;;;;;;;2.50;2.30;;;0.20;99.90;;;;;;5027023;28;20250;-66
2021/12/04 09:09:10;;;;;;;2.37;2.00;;;0.20;99.90;;;;;;5027882;28;20234;-66
2021/12/04 09:12:03;;;;;;;2.33;2.13;;;0.30;99.90;;;;;;5024876;28;20199;-68
2021/12/04 09:14:49;;;;;;;4.63;2.40;;;0.20;99.90;;;;;;5021726;28;20350;-67
2021/12/04 09:17:33;;;;;;;4.37;2.47;;;0.20;99.90;;;;;;5028417;28;20191;-66
2021/12/04 09:24:12;;;;;;;2.23;2.13;;;0.40;99.90;;;;;;5014412;28;20292;-67
2021/12/04 10:33:45;;;;;;;3.03;2.40;;;0.50;99.90;;;;;;4947937;28;20295;-67
2021/12/04 10:36:39;;;;;;;5.43;3.17;;;0.50;99.90;;;;;;5027309;28;20245;-67
2021/12/04 10:39:24;;;;;;;2.13;2.03;;;0.60;99.90;;;;;;5026544;28;20190;-67
2021/12/04 10:42:16;;;;;;;3.77;2.90;;;0.50;99.90;;;;;;5027393;28;20222;-68
2021/12/04 10:45:01;;;;;;;4.10;3.17;;;0.50;99.90;;;;;;5027261;28;20211;-68
2021/12/04 10:47:58;;;;;;;2.40;2.23;;;0.60;99.90;;;;;;5026817;28;20230;-68
2021/12/04 10:50:52;;;;;;;3.17;2.87;;;0.60;99.90;;;;;;5026081;28;20274;-67
2021/12/04 10:53:46;;;;;;;2.70;2.53;;;0.50;99.90;;;;;;5024001;28;20287;-68
2021/12/04 10:57:01;;;;;;;1.77;1.67;;;0.60;99.90;;;;;;5025072;28;20199;-68
2021/12/04 11:00:35;;;;;;;2.57;2.37;;;0.70;99.90;;;;;;5027584;28;20637;-68
2021/12/04 11:02:56;;;;;;;1.83;1.73;;;0.70;99.90;;;;;;5025661;28;20246;-69
2021/12/04 11:21:59;;;;;;;3.00;2.80;;;0.60;99.90;;;;;;5025624;28;20199;-67
2021/12/04 11:25:16;;;;;;;2.57;1.90;;;0.60;99.90;;;;;;5021781;28;20211;-68
2021/12/04 11:46:47;;;;;;;2.17;2.03;;;0.80;99.90;;;;;;5018893;28;20277;-69
2021/12/04 11:49:33;;;;;;;3.20;2.90;;;0.90;99.90;;;;;;5023164;28;20273;-69
2021/12/04 11:52:20;;;;;;;2.47;2.30;;;0.90;99.90;;;;;;5024010;28;20194;-69
2021/12/04 11:55:09;;;;;;;2.17;1.97;;;0.90;99.90;;;;;;5012729;28;20194;-71
2021/12/04 11:57:55;;;;;;;3.53;3.23;;;1.00;99.90;;;;;;5023634;28;20191;-71
2021/12/04 12:00:41;;;;;;;2.73;2.50;;;0.90;99.90;;;;;;5015216;28;20196;-72
2021/12/04 12:03:33;;;;;;;1.70;1.60;;;1.00;99.90;;;;;;5010440;28;20195;-71
2021/12/04 12:06:37;;;;;;;2.40;2.20;;;1.00;99.90;;;;;;5022209;28;20194;-70
2021/12/04 12:09:27;;;;;;;3.37;2.77;;;1.00;99.90;;;;;;5024903;28;20265;-70
2021/12/04 12:12:14;;;;;;;3.60;2.77;;;1.00;99.90;;;;;;5009274;28;20203;-69
2021/12/04 12:15:04;;;;;;;3.03;2.73;;;1.00;99.90;;;;;;5018421;28;20230;-66
2021/12/04 12:17:48;;;;;;;1.47;1.47;;;0.90;99.90;;;;;;5024630;28;20194;-69
2021/12/04 12:20:44;;;;;;;2.90;2.30;;;1.00;99.90;;;;;;5007601;28;20227;-68
2021/12/04 12:23:32;;;;;;;2.47;1.73;;;1.10;99.90;;;;;;5006637;28;20277;-70
2021/12/04 12:26:35;;;;;;;2.33;2.13;;;1.10;99.90;;;;;;5024267;28;20195;-71
2021/12/04 12:38:47;;;;;;;3.20;2.90;;;1.20;99.90;;;;;;5019443;28;20215;-70
2021/12/04 12:41:39;;;;;;;3.30;2.60;;;1.30;99.90;;;;;;5022704;28;20322;-71
2021/12/04 12:44:30;;;;;;;3.10;2.43;;;1.20;99.90;;;;;;5024154;28;20238;-71
2021/12/04 12:47:18;;;;;;;4.20;2.67;;;1.20;99.90;;;;;;5022920;28;20307;-70
2021/12/04 12:50:03;;;;;;;3.13;2.77;;;1.20;99.90;;;;;;5023362;28;20231;-69
2021/12/04 12:52:58;;;;;;;1.40;1.30;;;1.20;99.90;;;;;;5024090;28;20590;-69
2021/12/04 12:55:45;;;;;;;2.13;1.63;;;1.20;99.90;;;;;;5023681;28;20609;-70
2021/12/04 12:58:41;;;;;;;4.43;1.93;;;1.10;99.90;;;;;;5004211;28;20276;-67
2021/12/04 13:14:42;;;;;;;1.43;1.33;;;1.10;99.90;;;;;;5009295;28;20214;-69
2021/12/04 13:17:29;;;;;;;4.00;2.90;;;1.20;99.90;;;;;;5006615;28;20230;-69
2021/12/04 13:20:13;;;;;;;2.20;2.00;;;1.10;99.90;;;;;;5019971;28;20203;-70
2021/12/04 13:22:58;;;;;;;2.17;1.97;;;1.10;99.90;;;;;;5026792;28;20253;-71
2021/12/04 13:25:54;;;;;;;2.73;2.53;;;1.20;99.90;;;;;;5023293;28;20199;-70
2021/12/04 13:28:44;;;;;;;3.00;1.97;;;1.10;99.90;;;;;;5038831;28;20287;-70
2021/12/04 13:31:29;;;;;;;5.50;2.20;;;1.20;99.90;;;;;;5021839;28;20191;-72
2021/12/04 13:34:22;;;;;;;1.77;1.73;;;1.10;99.90;;;;;;5025426;28;20233;-69
2021/12/04 13:37:08;;;;;;;1.97;1.43;;;1.20;99.90;;;;;;5026484;28;20210;-71
2021/12/04 13:39:58;;;;;;;2.10;1.77;;;1.10;99.90;;;;;;5027562;28;20195;-70
2021/12/04 13:42:44;;;;;;;2.43;2.30;;;1.20;99.90;;;;;;5025262;28;20203;-68
2021/12/04 13:45:28;;;;;;;1.63;1.60;;;1.20;99.90;;;;;;5026595;28;20198;-71
2021/12/04 13:48:12;;;;;;;1.57;1.47;;;1.20;99.90;;;;;;5026560;28;20222;-68
2021/12/04 13:50:59;;;;;;;2.17;2.00;;;1.20;99.90;;;;;;5011535;28;20235;-68
2021/12/04 13:53:46;;;;;;;2.40;1.70;;;1.20;99.90;;;;;;5026785;28;20207;-68
2021/12/04 13:56:31;;;;;;;1.73;1.50;;;1.20;99.90;;;;;;5025543;28;20199;-69
2021/12/04 13:59:23;;;;;;;2.13;1.77;;;1.20;99.90;;;;;;5023054;28;20206;-71
2021/12/04 14:02:25;;;;;;;2.87;2.67;;;1.10;99.90;;;;;;5025777;28;20215;-71
2021/12/04 14:05:18;;;;;;;2.67;2.27;;;1.20;99.90;;;;;;5025252;28;20201;-67
2021/12/04 14:08:05;;;;;;;1.83;1.60;;;1.20;99.90;;;;;;5024321;28;20222;-72
2021/12/04 14:10:51;;;;;;;1.97;1.87;;;1.20;99.90;;;;;;5025212;28;20195;-72
2021/12/04 14:13:38;;;;;;;3.27;1.23;;;1.10;99.90;;;;;;5024916;28;20202;-71
2021/12/04 14:16:24;;;;;;;2.00;1.73;;;1.10;99.90;;;;;;5024882;28;20195;-70
2021/12/04 14:19:27;;;;;;;2.00;1.90;;;1.20;99.90;;;;;;5025592;28;20245;-73
2021/12/04 14:22:12;;;;;;;2.37;2.20;;;1.10;99.90;;;;;;5024352;28;20190;-70
2021/12/04 14:25:01;;;;;;;1.87;1.77;;;1.10;99.90;;;;;;5024727;28;20213;-73
2021/12/04 14:27:46;;;;;;;4.00;2.20;;;1.10;99.90;;;;;;5025303;28;20235;-71
2021/12/04 14:30:33;;;;;;;2.20;1.97;;;1.10;99.90;;;;;;5023670;28;20198;-72
2021/12/04 14:33:23;;;;;;;1.47;1.40;;;1.10;99.90;;;;;;5024222;28;20194;-69
2021/12/04 14:36:08;;;;;;;2.53;2.27;;;1.20;99.90;;;;;;5025096;28;20191;-71
2021/12/04 14:38:53;;;;;;;2.67;2.20;;;1.20;99.90;;;;;;5023029;28;20272;-70
2021/12/04 14:41:37;;;;;;;2.13;1.60;;;1.10;99.90;;;;;;5024241;28;20210;-71
2021/12/04 14:44:23;;;;;;;2.93;2.57;;;1.10;99.90;;;;;;5024602;28;20232;-69
2021/12/04 14:47:10;;;;;;;3.10;2.13;;;1.10;99.90;;;;;;5023094;28;20226;-73
2021/12/04 14:49:59;;;;;;;2.73;1.80;;;1.10;99.90;;;;;;5024764;28;20227;-71
2021/12/04 14:52:50;;;;;;;1.50;1.50;;;1.10;99.90;;;;;;5023842;28;20207;-70
2021/12/04 14:55:40;;;;;;;2.67;2.30;;;1.10;99.90;;;;;;5023989;28;20203;-71
2021/12/04 14:58:27;;;;;;;2.67;2.47;;;1.10;99.90;;;;;;5024886;28;20203;-69
2021/12/04 15:01:14;;;;;;;3.27;2.50;;;1.10;99.90;;;;;;5023281;28;20218;-68
2021/12/04 15:04:02;;;;;;;2.93;2.67;;;1.10;99.90;;;;;;5024285;28;20254;-69
2021/12/04 15:06:47;;;;;;;2.17;2.00;;;1.10;99.90;;;;;;5025308;28;20254;-68
2021/12/04 15:09:31;;;;;;;1.90;1.63;;;1.10;99.90;;;;;;5023138;28;20194;-67
2021/12/04 15:12:34;;;;;;;2.43;2.23;;;1.10;99.90;;;;;;5023205;28;20281;-71
2021/12/04 15:15:20;;;;;;;2.10;1.97;;;1.10;99.90;;;;;;5024564;28;20214;-66
2021/12/04 15:18:12;;;;;;;3.67;2.07;;;1.10;99.90;;;;;;5023301;28;20230;-69
2021/12/04 15:21:00;;;;;;;2.50;1.87;;;1.10;99.90;;;;;;5023459;28;20206;-69
2021/12/04 15:23:52;;;;;;;2.87;2.67;;;1.10;99.90;;;;;;5024537;28;20273;-67
2021/12/04 15:26:41;;;;;;;2.97;2.20;;;1.10;99.90;;;;;;5022649;28;20222;-68
2021/12/04 15:29:29;;;;;;;2.90;2.07;;;1.10;99.90;;;;;;5023286;28;20206;-66
2021/12/04 15:32:16;;;;;;;1.83;1.73;;;1.10;99.90;;;;;;5023938;28;20199;-69
2021/12/04 15:35:16;;;;;;;2.60;2.40;;;1.10;99.90;;;;;;5022432;28;20198;-66
2021/12/04 15:38:16;;;;;;;4.67;3.53;;;1.10;99.90;;;;;;5023518;28;20211;-67
2021/12/04 15:41:10;;;;;;;1.70;1.57;;;1.10;99.90;;;;;;5023888;28;20214;-67
2021/12/04 15:44:25;;;;;;;3.20;2.17;;;1.10;99.90;;;;;;5022654;28;20217;-66
2021/12/04 15:53:22;;;;;;;1.60;1.50;;;1.10;99.90;;;;;;5024503;28;20285;-66
2021/12/04 15:56:06;;;;;;;1.83;1.83;;;1.00;99.90;;;;;;5022837;28;20199;-68
2021/12/04 15:58:51;;;;;;;3.63;2.43;;;1.10;99.90;;;;;;5024005;28;20218;-67
2021/12/04 16:01:35;;;;;;;2.63;1.77;;;1.10;99.90;;;;;;5022661;28;20249;-66
2021/12/04 16:04:29;;;;;;;1.73;1.63;;;1.10;99.90;;;;;;5022517;28;20197;-65
2021/12/04 16:07:28;;;;;;;3.00;2.77;;;1.10;99.90;;;;;;5023322;28;20221;-67
2021/12/04 16:10:14;;;;;;;2.33;1.80;;;1.20;99.90;;;;;;5022523;28;20218;-66
2021/12/04 16:12:59;;;;;;;2.53;1.50;;;1.10;99.90;;;;;;5022462;28;20245;-65
2021/12/04 16:15:43;;;;;;;3.93;2.03;;;1.20;99.90;;;;;;5023119;28;20202;-67
2021/12/04 16:18:29;;;;;;;2.10;2.00;;;1.10;99.90;;;;;;5022479;28;20202;-66
2021/12/04 16:21:14;;;;;;;2.73;1.93;;;1.20;99.90;;;;;;5023272;28;20242;-67
2021/12/04 16:23:59;;;;;;;1.93;1.83;;;1.20;99.90;;;;;;5023744;28;20195;-66
2021/12/04 16:26:43;;;;;;;2.43;2.27;;;1.20;99.90;;;;;;5022305;28;20218;-66
2021/12/04 16:29:31;;;;;;;1.63;1.50;;;1.20;99.90;;;;;;5023417;28;20195;-66
2021/12/04 16:38:11;;;;;;;1.63;1.53;;;1.10;99.90;;;;;;5024447;28;20333;-66
2021/12/04 16:40:56;;;;;;;1.53;1.53;;;1.20;99.90;;;;;;5022616;28;20206;-66
2021/12/04 16:43:45;;;;;;;2.90;2.67;;;1.20;99.90;;;;;;5022287;28;20211;-67
2021/12/04 16:46:30;;;;;;;1.90;1.40;;;1.20;99.90;;;;;;5025149;28;20202;-67
2021/12/04 16:49:15;;;;;;;2.10;2.00;;;1.20;99.90;;;;;;5025880;28;20198;-67
2021/12/04 17:00:38;;;;;;;2.23;1.70;;;1.20;99.90;;;;;;5027496;28;20222;-67
2021/12/04 17:03:23;;;;;;;6.27;3.57;;;1.20;99.90;;;;;;5026746;28;20214;-67
2021/12/04 17:06:08;;;;;;;5.00;2.73;;;1.10;99.90;;;;;;5026001;28;20203;-67
2021/12/04 17:08:52;;;;;;;1.90;1.80;;;1.20;99.90;;;;;;5026442;28;20207;-67
2021/12/04 17:11:38;;;;;;;3.53;1.97;;;1.20;99.90;;;;;;5026018;28;20211;-66
2021/12/04 17:14:25;;;;;;;2.47;2.13;;;1.10;99.90;;;;;;5025474;28;20238;-66
2021/12/04 17:17:12;;;;;;;3.40;1.93;;;1.20;99.90;;;;;;5026467;28;20194;-66
2021/12/04 17:19:59;;;;;;;3.13;2.83;;;1.20;99.90;;;;;;5025562;28;20259;-66
2021/12/04 17:22:46;;;;;;;3.57;1.77;;;1.20;99.90;;;;;;5025088;28;20242;-66
2021/12/04 17:25:30;;;;;;;2.63;2.37;;;1.20;99.90;;;;;;5026880;28;20218;-66
2021/12/04 17:28:16;;;;;;;1.90;1.80;;;1.30;99.90;;;;;;5025308;28;20235;-66
2021/12/04 17:31:03;;;;;;;2.43;2.13;;;1.30;99.90;;;;;;5025193;28;20203;-66
2021/12/04 17:33:50;;;;;;;1.13;1.13;;;1.30;99.90;;;;;;5026183;28;20190;-65
2021/12/04 17:36:36;;;;;;;2.90;2.70;;;1.20;99.90;;;;;;5025122;28;20202;-66
2021/12/04 17:39:23;;;;;;;2.17;1.97;;;1.20;99.90;;;;;;5025028;28;20310;-65
2021/12/04 17:42:08;;;;;;;2.00;1.90;;;1.20;99.90;;;;;;5025678;28;20210;-65
2021/12/04 17:44:54;;;;;;;2.60;1.90;;;1.30;99.90;;;;;;5024586;28;20194;-65
2021/12/04 17:47:43;;;;;;;2.77;1.77;;;1.30;99.90;;;;;;5025965;28;20285;-64
2021/12/04 17:50:27;;;;;;;2.20;1.97;;;1.30;99.90;;;;;;5024933;28;20233;-65
2021/12/04 17:53:12;;;;;;;3.60;3.30;;;1.30;99.90;;;;;;5024409;28;20191;-66
2021/12/04 17:55:57;;;;;;;5.70;2.00;;;1.30;99.90;;;;;;5026020;28;20191;-66
2021/12/04 17:58:42;;;;;;;2.97;2.67;;;1.30;99.90;;;;;;5023944;28;20314;-66
2021/12/04 18:01:46;;;;;;;4.30;3.20;;;1.30;99.90;;;;;;5025059;28;20625;-63
2021/12/04 18:04:35;;;;;;;3.43;2.67;;;1.40;99.90;;;;;;5026006;28;20274;-66
2021/12/04 18:07:23;;;;;;;3.80;3.10;;;1.40;99.90;;;;;;5024766;28;20222;-66
2021/12/04 18:10:12;;;;;;;3.13;2.57;;;1.30;99.90;;;;;;5024607;28;20206;-67
2021/12/04 18:13:01;;;;;;;3.87;3.33;;;1.40;99.90;;;;;;5025949;28;20227;-67
2021/12/04 18:15:59;;;;;;;3.40;3.13;;;1.40;99.90;;;;;;5023675;28;20203;-63
2021/12/04 18:18:43;;;;;;;2.63;2.40;;;1.40;99.90;;;;;;5024469;28;20194;-63